createdAt,value
2022-12-19T00:00:30.361Z,-0.36
2022-12-19T00:02:58.151Z,-0.34
2022-12-19T00:05:25.993Z,-0.33
2022-12-19T00:07:54.516Z,-0.32
2022-12-19T00:10:22.305Z,-0.33
2022-12-19T00:12:50.026Z,-0.31
2022-12-19T00:15:17.931Z,-0.29
2022-12-19T00:17:46.972Z,-0.28
2022-12-19T00:20:14.841Z,-0.27
2022-12-19T00:22:46.287Z,-0.26
2022-12-19T00:25:14.113Z,-0.24
2022-12-19T00:27:42.216Z,-0.24
2022-12-19T00:30:11.564Z,-0.22
2022-12-19T00:32:39.681Z,-0.18
2022-12-19T00:35:09.562Z,-0.14
2022-12-19T00:37:37.454Z,-0.13
2022-12-19T00:40:09.435Z,-0.10
2022-12-19T00:42:39.712Z,-0.07
2022-12-19T00:45:10.206Z,-0.01
2022-12-19T00:47:37.950Z,0.09
2022-12-19T00:50:06.226Z,0.17
2022-12-19T00:52:35.370Z,0.20
2022-12-19T00:55:05.030Z,0.23
2022-12-19T00:57:37.019Z,0.23
2022-12-19T01:00:06.066Z,0.25
2022-12-19T01:02:33.959Z,0.28
2022-12-19T01:05:02.995Z,0.28
2022-12-19T01:07:30.786Z,0.28
2022-12-19T01:10:03.130Z,0.26
2022-12-19T01:12:48.041Z,0.27
2022-12-19T01:15:18.266Z,0.28
2022-12-19T01:17:46.080Z,0.30
2022-12-19T01:20:15.916Z,0.32
2022-12-19T01:22:43.801Z,0.35
2022-12-19T01:25:15.897Z,0.36
2022-12-19T01:27:43.694Z,0.43
2022-12-19T01:30:13.049Z,0.46
2022-12-19T01:32:41.487Z,0.48
2022-12-19T01:35:14.608Z,0.50
2022-12-19T01:37:49.971Z,0.49
2022-12-19T01:40:19.663Z,0.50
2022-12-19T01:42:49.017Z,0.51
2022-12-19T01:45:43.605Z,0.51
2022-12-19T01:48:17.808Z,0.54
2022-12-19T01:51:01.046Z,0.57
2022-12-19T01:53:36.645Z,0.59
2022-12-19T01:56:20.625Z,0.63
2022-12-19T01:58:57.960Z,0.66
2022-12-19T02:01:50.117Z,0.71
2022-12-19T02:04:20.900Z,0.74
2022-12-19T02:06:49.914Z,0.77
2022-12-19T02:09:18.431Z,0.82
2022-12-19T02:11:47.598Z,0.90
2022-12-19T02:14:16.063Z,0.94
2022-12-19T02:16:55.299Z,1.01
2022-12-19T02:19:50.685Z,1.06
2022-12-19T02:22:24.643Z,1.14
2022-12-19T02:25:20.726Z,1.19
2022-12-19T02:28:13.460Z,1.25
2022-12-19T02:31:00.166Z,1.31
2022-12-19T02:33:41.738Z,1.41
2022-12-19T02:36:12.041Z,1.47
2022-12-19T02:38:45.178Z,1.52
2022-12-19T02:41:21.089Z,1.55
2022-12-19T02:43:52.832Z,1.59
2022-12-19T02:46:29.767Z,1.61
2022-12-19T02:48:58.162Z,1.66
2022-12-19T02:51:25.953Z,1.70
2022-12-19T02:53:53.810Z,1.72
2022-12-19T02:56:34.861Z,1.74
2022-12-19T02:59:15.794Z,1.75
2022-12-19T03:01:50.289Z,1.78
2022-12-19T03:04:32.679Z,1.80
2022-12-19T03:07:09.127Z,1.82
2022-12-19T03:09:46.403Z,1.84
2022-12-19T03:12:20.974Z,1.86
2022-12-19T03:14:49.892Z,1.89
2022-12-19T03:17:20.388Z,1.94
2022-12-19T03:19:48.412Z,1.97
2022-12-19T03:22:16.266Z,2.02
2022-12-19T03:24:44.237Z,2.05
2022-12-19T03:27:16.325Z,2.09
2022-12-19T03:29:50.643Z,2.13
2022-12-19T03:32:22.520Z,2.16
2022-12-19T03:34:54.844Z,2.21
2022-12-19T03:37:27.105Z,2.22
2022-12-19T03:39:59.219Z,2.26
2022-12-19T03:42:47.070Z,2.27
2022-12-19T03:45:19.666Z,2.27
2022-12-19T03:47:52.663Z,2.31
2022-12-19T03:50:20.754Z,2.37
2022-12-19T03:52:56.058Z,2.39
2022-12-19T03:55:31.345Z,2.41
2022-12-19T03:58:05.462Z,2.44
2022-12-19T04:00:37.608Z,2.47
2022-12-19T04:03:08.085Z,2.49
2022-12-19T04:05:39.024Z,2.53
2022-12-19T04:08:09.015Z,2.55
2022-12-19T04:10:44.553Z,2.56
2022-12-19T04:13:17.297Z,2.59
2022-12-19T04:15:52.478Z,2.63
2022-12-19T04:18:22.264Z,2.63
2022-12-19T04:20:54.043Z,2.64
2022-12-19T04:23:26.713Z,2.66
2022-12-19T04:26:01.472Z,2.67
2022-12-19T04:28:34.437Z,2.67
2022-12-19T04:31:03.869Z,2.72
2022-12-19T04:33:32.968Z,2.72
2022-12-19T04:36:01.238Z,2.74
2022-12-19T04:38:29.040Z,2.77
2022-12-19T04:40:56.798Z,2.76
2022-12-19T04:43:24.954Z,2.77
2022-12-19T04:45:57.101Z,2.80
2022-12-19T04:48:26.044Z,2.86
2022-12-19T04:50:56.229Z,2.88
2022-12-19T04:53:24.371Z,2.90
2022-12-19T04:55:52.124Z,2.94
2022-12-19T04:58:22.055Z,2.98
2022-12-19T05:00:49.981Z,3.02
2022-12-19T05:03:17.829Z,3.06
2022-12-19T05:05:45.582Z,3.11
2022-12-19T05:08:14.699Z,3.10
2022-12-19T05:10:42.408Z,3.14
2022-12-19T05:13:10.491Z,3.15
2022-12-19T05:15:38.309Z,3.22
2022-12-19T05:18:06.216Z,3.25
2022-12-19T05:20:34.390Z,3.29
2022-12-19T05:23:05.758Z,3.34
2022-12-19T05:25:37.145Z,3.41
2022-12-19T05:28:05.240Z,3.45
2022-12-19T05:30:33.000Z,3.48
2022-12-19T05:33:01.338Z,3.50
2022-12-19T05:35:29.098Z,3.54
2022-12-19T05:37:56.884Z,3.56
2022-12-19T05:40:24.685Z,3.61
2022-12-19T05:42:53.882Z,3.67
2022-12-19T05:45:22.276Z,3.70
2022-12-19T05:47:50.184Z,3.72
2022-12-19T05:50:19.069Z,3.75
2022-12-19T05:52:51.974Z,3.79
2022-12-19T05:55:20.158Z,3.82
2022-12-19T05:57:47.859Z,3.88
2022-12-19T06:00:17.922Z,3.92
2022-12-19T06:02:45.756Z,3.99
2022-12-19T06:05:13.589Z,4.07
2022-12-19T06:07:41.612Z,4.13
2022-12-19T06:10:09.565Z,4.19
2022-12-19T06:12:37.314Z,4.28
2022-12-19T06:15:05.560Z,4.35
2022-12-19T06:17:34.721Z,4.42
2022-12-19T06:20:02.559Z,4.57
2022-12-19T06:22:30.308Z,4.64
2022-12-19T06:24:58.042Z,4.74
2022-12-19T06:27:25.794Z,4.82
2022-12-19T06:29:53.510Z,4.88
2022-12-19T06:32:21.262Z,4.98
2022-12-19T06:35:05.626Z,5.02
2022-12-19T06:37:33.471Z,5.09
2022-12-19T06:40:01.273Z,5.14
2022-12-19T06:42:28.033Z,5.22
2022-12-19T06:44:56.829Z,5.25
2022-12-19T06:47:25.977Z,5.29
2022-12-19T06:49:55.120Z,5.35
2022-12-19T06:52:22.871Z,5.36
2022-12-19T06:54:50.692Z,5.40
2022-12-19T06:57:18.578Z,5.42
2022-12-19T06:59:46.336Z,5.46
2022-12-19T07:02:25.683Z,5.48
2022-12-19T07:05:01.569Z,5.53
2022-12-19T07:07:29.915Z,5.55
2022-12-19T07:09:57.724Z,5.61
2022-12-19T07:12:25.515Z,5.66
2022-12-19T07:14:53.844Z,5.74
2022-12-19T07:17:23.473Z,5.73
2022-12-19T07:19:54.478Z,5.77
2022-12-19T07:22:24.726Z,5.79
2022-12-19T07:24:52.709Z,5.79
2022-12-19T07:27:20.537Z,5.82
2022-12-19T07:29:48.312Z,5.84
2022-12-19T07:32:16.056Z,5.87
2022-12-19T07:34:43.810Z,5.88
2022-12-19T07:37:11.551Z,5.88
2022-12-19T07:39:40.637Z,5.91
2022-12-19T07:42:08.405Z,5.94
2022-12-19T07:44:39.541Z,5.99
2022-12-19T07:47:10.038Z,5.99
2022-12-19T07:49:37.885Z,5.99
2022-12-19T07:52:05.670Z,6.01
2022-12-19T07:54:33.481Z,6.04
2022-12-19T07:57:02.883Z,6.06
2022-12-19T07:59:35.655Z,6.07
2022-12-19T08:02:07.244Z,6.11
2022-12-19T08:04:36.104Z,6.13
2022-12-19T08:07:03.843Z,6.15
2022-12-19T08:09:31.680Z,6.16
2022-12-19T08:11:59.824Z,6.19
2022-12-19T08:14:29.233Z,6.22
2022-12-19T08:17:19.702Z,6.25
2022-12-19T08:19:44.757Z,6.28
2022-12-19T08:22:12.578Z,6.31
2022-12-19T08:24:40.374Z,6.32
2022-12-19T08:27:08.104Z,6.35
2022-12-19T08:29:37.209Z,6.37
2022-12-19T08:32:05.238Z,6.37
2022-12-19T08:34:33.400Z,6.40
2022-12-19T08:37:01.150Z,6.42
2022-12-19T08:39:28.865Z,6.43
2022-12-19T08:41:56.565Z,6.47
2022-12-19T08:44:24.504Z,6.47
2022-12-19T08:46:53.650Z,6.47
2022-12-19T08:49:21.592Z,6.48
2022-12-19T08:51:49.734Z,6.50
2022-12-19T08:54:17.486Z,6.51
2022-12-19T08:56:46.691Z,6.52
2022-12-19T08:59:20.495Z,6.54
2022-12-19T09:02:01.287Z,6.55
2022-12-19T09:06:01.830Z,6.55
2022-12-19T09:07:17.224Z,6.57
2022-12-19T09:09:45.082Z,6.55
2022-12-19T09:12:13.280Z,6.55
2022-12-19T09:14:41.152Z,6.57
2022-12-19T09:17:10.365Z,6.58
2022-12-19T09:19:38.150Z,6.59
2022-12-19T09:22:06.823Z,6.61
2022-12-19T09:24:34.554Z,6.64
2022-12-19T09:27:02.859Z,6.64
2022-12-19T09:29:35.085Z,6.66
2022-12-19T09:32:03.439Z,6.67
2022-12-19T09:34:37.355Z,6.68
2022-12-19T09:37:06.557Z,6.69
2022-12-19T09:39:35.372Z,6.69
2022-12-19T09:42:16.210Z,6.71
2022-12-19T09:44:58.875Z,6.75
2022-12-19T09:47:31.663Z,6.76
2022-12-19T09:50:02.572Z,6.77
2022-12-19T09:52:34.884Z,6.80
2022-12-19T09:55:07.627Z,6.80
2022-12-19T09:57:42.431Z,6.80
2022-12-19T10:00:14.713Z,6.82
2022-12-19T10:02:48.328Z,6.82
2022-12-19T10:06:34.036Z,6.84
2022-12-19T10:08:18.107Z,6.86
2022-12-19T10:12:38.035Z,6.90
2022-12-19T10:14:02.958Z,6.93
2022-12-19T10:16:41.598Z,6.96
2022-12-19T10:19:11.094Z,7.00
2022-12-19T10:25:09.271Z,7.10
2022-12-19T10:27:59.698Z,7.15
2022-12-19T10:30:31.777Z,7.17
2022-12-19T10:33:14.750Z,7.22
2022-12-19T10:35:55.249Z,7.25
2022-12-19T10:38:32.983Z,7.26
2022-12-19T10:41:16.256Z,7.26
2022-12-19T10:43:53.960Z,7.23
2022-12-19T10:46:31.515Z,7.26
2022-12-19T10:49:03.393Z,7.27
2022-12-19T10:51:33.127Z,7.27
2022-12-19T10:54:02.232Z,7.27
2022-12-19T10:56:37.173Z,7.29
2022-12-19T10:59:17.505Z,7.27
2022-12-19T11:01:45.706Z,7.27
2022-12-19T11:04:31.699Z,7.29
2022-12-19T11:07:18.870Z,7.29
2022-12-19T11:10:15.899Z,7.30
2022-12-19T11:17:00.506Z,7.31
2022-12-19T11:18:56.715Z,7.31
2022-12-19T11:25:28.495Z,7.33
2022-12-19T11:29:25.113Z,7.35
2022-12-19T11:30:41.543Z,7.36
2022-12-19T11:30:46.250Z,7.35
2022-12-19T11:32:42.247Z,7.44
2022-12-19T11:35:24.699Z,7.47
2022-12-19T11:37:57.203Z,7.50
2022-12-19T11:40:34.066Z,7.52
2022-12-19T11:43:43.018Z,7.54
2022-12-19T11:46:03.728Z,7.57
2022-12-19T11:48:38.529Z,7.59
2022-12-19T11:51:15.878Z,7.59
2022-12-19T11:53:50.411Z,7.60
2022-12-19T11:56:21.752Z,7.63
2022-12-19T11:58:54.998Z,7.61
2022-12-19T12:01:42.213Z,7.62
2022-12-19T12:04:47.535Z,7.63
2022-12-19T12:07:39.857Z,7.68
2022-12-19T12:15:37.080Z,7.68
2022-12-19T12:20:57.685Z,7.68
2022-12-19T12:28:41.631Z,7.68
2022-12-19T12:31:12.016Z,7.67
2022-12-19T12:31:31.951Z,7.69
2022-12-19T12:31:39.469Z,7.76
2022-12-19T12:31:42.621Z,7.72
2022-12-19T12:31:50.627Z,7.70
2022-12-19T12:35:56.312Z,7.76
2022-12-19T12:39:52.123Z,7.78
2022-12-19T12:42:34.341Z,7.81
2022-12-19T12:45:16.329Z,7.82
2022-12-19T12:47:45.350Z,7.83
2022-12-19T12:50:18.204Z,7.84
2022-12-19T12:52:49.247Z,7.86
2022-12-19T12:55:21.997Z,7.83
2022-12-19T12:57:49.775Z,7.87
2022-12-19T13:00:25.157Z,7.92
2022-12-19T13:02:57.291Z,7.93
2022-12-19T13:05:39.389Z,7.95
2022-12-19T13:08:36.205Z,7.95
2022-12-19T13:11:06.954Z,7.97
2022-12-19T13:13:53.454Z,7.94
2022-12-19T13:16:49.766Z,7.96
2022-12-19T13:19:25.794Z,7.94
2022-12-19T13:22:41.324Z,7.91
2022-12-19T13:25:45.287Z,7.91
2022-12-19T13:28:42.891Z,7.96
2022-12-19T13:31:20.529Z,7.93
2022-12-19T13:34:20.147Z,7.91
2022-12-19T13:39:49.404Z,7.90
2022-12-19T13:40:01.729Z,7.89
2022-12-19T13:42:59.463Z,7.90
2022-12-19T13:45:41.945Z,7.90
2022-12-19T13:48:16.249Z,7.91
2022-12-19T13:50:47.660Z,7.92
2022-12-19T13:53:18.349Z,7.94
2022-12-19T13:55:47.756Z,7.93
2022-12-19T13:58:29.455Z,7.90
2022-12-19T14:01:02.275Z,7.94
2022-12-19T14:03:39.084Z,7.96
2022-12-19T14:06:18.738Z,7.98
2022-12-19T14:10:02.882Z,7.96
2022-12-19T14:13:38.608Z,7.94
2022-12-19T14:14:58.095Z,7.93
2022-12-19T14:17:37.829Z,7.96
2022-12-19T14:22:02.528Z,7.93
2022-12-19T14:23:06.418Z,7.93
2022-12-19T14:28:18.617Z,7.92
2022-12-19T14:28:32.602Z,7.88
2022-12-19T14:31:03.889Z,7.86
2022-12-19T14:33:44.186Z,7.87
2022-12-19T14:36:26.194Z,7.86
2022-12-19T14:39:23.615Z,7.86
2022-12-19T14:42:04.111Z,7.87
2022-12-19T14:52:53.663Z,7.85
2022-12-19T14:54:07.298Z,7.87
2022-12-19T14:54:09.038Z,7.86
2022-12-19T14:54:31.364Z,7.85
2022-12-19T14:56:29.077Z,7.87
2022-12-19T14:58:59.683Z,7.87
2022-12-19T15:01:32.001Z,7.87
2022-12-19T15:04:53.510Z,7.86
2022-12-19T15:07:07.694Z,7.88
2022-12-19T15:11:02.799Z,7.87
2022-12-19T15:14:48.944Z,7.88
2022-12-19T15:15:59.057Z,7.87
2022-12-19T15:18:29.283Z,7.90
2022-12-19T15:20:59.250Z,7.91
2022-12-19T15:23:27.650Z,7.90
2022-12-19T15:26:06.190Z,7.88
2022-12-19T15:28:42.022Z,7.86
2022-12-19T15:31:23.404Z,7.91
2022-12-19T15:34:33.579Z,7.91
2022-12-19T15:36:40.421Z,7.91
2022-12-19T15:39:08.263Z,7.91
2022-12-19T15:41:36.527Z,7.92
2022-12-19T15:44:09.927Z,7.92
2022-12-19T15:46:41.341Z,7.94
2022-12-19T15:49:17.107Z,7.96
2022-12-19T15:51:44.926Z,7.95
2022-12-19T15:54:47.164Z,7.92
2022-12-19T15:57:00.558Z,7.88
2022-12-19T15:59:37.834Z,7.85
2022-12-19T16:02:17.104Z,7.83
2022-12-19T16:04:47.339Z,7.83
2022-12-19T16:07:17.731Z,7.82
2022-12-19T16:09:45.579Z,7.81
2022-12-19T16:12:16.498Z,7.80
2022-12-19T16:14:45.779Z,7.77
2022-12-19T16:17:18.965Z,7.72
2022-12-19T16:19:48.292Z,7.71
2022-12-19T16:22:19.394Z,7.71
2022-12-19T16:24:47.205Z,7.72
2022-12-19T16:27:22.211Z,7.70
2022-12-19T16:29:50.143Z,7.73
2022-12-19T16:32:18.645Z,7.74
2022-12-19T16:34:48.099Z,7.76
2022-12-19T16:37:15.851Z,7.79
2022-12-19T16:39:43.823Z,7.82
2022-12-19T16:42:16.120Z,7.85
2022-12-19T16:44:45.712Z,7.89
2022-12-19T16:47:15.133Z,7.92
2022-12-19T16:49:44.541Z,7.94
2022-12-19T16:52:13.818Z,7.98
2022-12-19T16:54:41.785Z,7.98
2022-12-19T16:57:19.251Z,7.99
2022-12-19T16:59:47.333Z,8.03
2022-12-19T17:02:36.598Z,8.07
2022-12-19T17:05:05.263Z,8.08
2022-12-19T17:07:34.401Z,8.12
2022-12-19T17:10:02.116Z,8.12
2022-12-19T17:12:30.031Z,8.17
2022-12-19T17:14:57.860Z,8.17
2022-12-19T17:17:25.821Z,8.25
2022-12-19T17:19:53.710Z,8.29
2022-12-19T17:22:21.610Z,8.40
2022-12-19T17:24:51.044Z,8.44
2022-12-19T17:27:19.274Z,8.56
2022-12-19T17:29:47.498Z,8.63
2022-12-19T17:32:23.206Z,8.64
2022-12-19T17:34:52.829Z,8.66
2022-12-19T17:37:20.653Z,8.74
2022-12-19T17:39:49.754Z,8.79
2022-12-19T17:42:22.607Z,8.80
2022-12-19T17:44:50.350Z,8.81
2022-12-19T17:47:21.049Z,8.78
2022-12-19T17:49:49.670Z,8.76
2022-12-19T17:52:19.493Z,8.74
2022-12-19T17:54:47.457Z,8.70
2022-12-19T17:57:17.870Z,8.70
2022-12-19T17:59:46.578Z,8.72
2022-12-19T18:02:25.124Z,8.72
2022-12-19T18:04:53.730Z,8.65
2022-12-19T18:07:21.648Z,8.68
2022-12-19T18:09:49.415Z,8.72
2022-12-19T18:12:18.564Z,8.74
2022-12-19T18:14:46.328Z,8.71
2022-12-19T18:17:17.123Z,8.66
2022-12-19T18:19:44.939Z,8.60
2022-12-19T18:22:13.897Z,8.63
2022-12-19T18:24:41.919Z,8.64
2022-12-19T18:27:09.739Z,8.72
2022-12-19T18:29:38.884Z,8.74
2022-12-19T18:32:06.698Z,8.78
2022-12-19T18:34:35.528Z,8.82
2022-12-19T18:37:05.420Z,8.80
2022-12-19T18:39:34.119Z,8.79
2022-12-19T18:42:02.185Z,8.81
2022-12-19T18:44:30.050Z,8.86
2022-12-19T18:46:59.276Z,8.89
2022-12-19T18:49:28.685Z,8.91
2022-12-19T18:51:56.544Z,8.91
2022-12-19T18:54:24.315Z,8.94
2022-12-19T18:56:52.889Z,9.01
2022-12-19T18:59:20.620Z,9.01
2022-12-19T19:01:48.655Z,9.02
2022-12-19T19:04:18.582Z,9.05
2022-12-19T19:06:51.660Z,9.09
2022-12-19T19:09:21.372Z,9.14
2022-12-19T19:12:07.647Z,9.20
2022-12-19T19:14:35.404Z,9.26
2022-12-19T19:17:05.420Z,9.26
2022-12-19T19:19:34.675Z,9.28
2022-12-19T19:22:02.515Z,9.28
2022-12-19T19:24:30.513Z,9.30
2022-12-19T19:26:58.267Z,9.25
2022-12-19T19:29:26.024Z,9.22
2022-12-19T19:31:54.028Z,9.25
2022-12-19T19:34:24.575Z,9.31
2022-12-19T19:36:56.415Z,9.31
2022-12-19T19:39:24.837Z,9.32
2022-12-19T19:41:53.563Z,9.36
2022-12-19T19:44:21.308Z,9.40
2022-12-19T19:46:49.272Z,9.42
2022-12-19T19:49:17.135Z,9.43
2022-12-19T19:51:44.908Z,9.44
2022-12-19T19:54:14.102Z,9.40
2022-12-19T19:56:41.931Z,9.33
2022-12-19T19:59:09.698Z,9.27
2022-12-19T20:01:37.675Z,9.25
2022-12-19T20:04:06.052Z,9.25
2022-12-19T20:06:33.835Z,9.27
2022-12-19T20:09:01.634Z,9.27
2022-12-19T20:11:30.923Z,9.26
2022-12-19T20:13:58.683Z,9.20
2022-12-19T20:16:26.536Z,9.23
2022-12-19T20:18:54.319Z,9.21
2022-12-19T20:21:23.927Z,9.18
2022-12-19T20:23:51.700Z,9.18
2022-12-19T20:26:20.199Z,9.19
2022-12-19T20:28:51.252Z,9.20
2022-12-19T20:31:19.480Z,9.17
2022-12-19T20:33:48.416Z,9.14
2022-12-19T20:36:17.229Z,9.09
2022-12-19T20:38:45.244Z,9.08
2022-12-19T20:41:13.131Z,9.05
2022-12-19T20:43:41.396Z,8.99
2022-12-19T20:46:13.724Z,8.97
2022-12-19T20:48:41.871Z,8.95
2022-12-19T20:51:10.469Z,8.94
2022-12-19T20:53:39.521Z,8.96
2022-12-19T20:56:09.228Z,8.94
2022-12-19T20:58:39.006Z,8.91
2022-12-19T21:01:09.205Z,8.92
2022-12-19T21:03:39.312Z,8.93
2022-12-19T21:06:08.806Z,8.91
2022-12-19T21:08:37.633Z,8.89
2022-12-19T21:11:07.193Z,8.90
2022-12-19T21:13:35.563Z,8.90
2022-12-19T21:16:08.526Z,8.88
2022-12-19T21:18:42.921Z,8.86
2022-12-19T21:21:19.316Z,8.84
2022-12-19T21:23:48.640Z,8.88
2022-12-19T21:26:16.381Z,8.97
2022-12-19T21:28:44.885Z,9.04
2022-12-19T21:31:18.381Z,9.11
2022-12-19T21:33:48.061Z,9.14
2022-12-19T21:36:19.037Z,9.16
2022-12-19T21:38:46.960Z,9.16
2022-12-19T21:41:18.991Z,9.14
2022-12-19T21:43:48.687Z,9.17
2022-12-19T21:46:18.260Z,9.24
2022-12-19T21:48:49.505Z,9.29
2022-12-19T21:51:19.476Z,9.33
2022-12-19T21:53:48.059Z,9.32
2022-12-19T21:56:24.342Z,9.33
2022-12-19T21:58:53.209Z,9.36
2022-12-19T22:01:21.653Z,9.36
2022-12-19T22:03:51.811Z,9.37
2022-12-19T22:06:27.748Z,9.36
2022-12-19T22:08:56.540Z,9.40
2022-12-19T22:11:25.463Z,9.40
2022-12-19T22:13:54.172Z,9.36
2022-12-19T22:16:22.048Z,9.35
2022-12-19T22:18:52.974Z,9.36
2022-12-19T22:21:21.533Z,9.36
2022-12-19T22:23:49.339Z,9.43
2022-12-19T22:26:19.469Z,9.41
2022-12-19T22:28:48.894Z,9.39
2022-12-19T22:31:19.199Z,9.40
2022-12-19T22:33:48.335Z,9.42
2022-12-19T22:36:23.982Z,9.43
2022-12-19T22:38:56.857Z,9.43
2022-12-19T22:41:24.881Z,9.40
2022-12-19T22:43:53.429Z,9.42
2022-12-19T22:46:23.448Z,9.40
2022-12-19T22:48:51.769Z,9.39
2022-12-19T22:51:21.364Z,9.37
2022-12-19T22:53:49.893Z,9.41
2022-12-19T22:56:19.743Z,9.44
2022-12-19T22:58:51.079Z,9.41
2022-12-19T23:01:23.418Z,9.37
2022-12-19T23:03:53.727Z,9.33
2022-12-19T23:06:24.559Z,9.38
2022-12-19T23:08:52.747Z,9.37
2022-12-19T23:11:23.867Z,9.35
2022-12-19T23:13:52.159Z,9.36
2022-12-19T23:16:20.082Z,9.37
2022-12-19T23:18:47.947Z,9.33
2022-12-19T23:21:17.339Z,9.33
2022-12-19T23:23:50.227Z,9.35
2022-12-19T23:26:20.136Z,9.35
2022-12-19T23:28:51.785Z,9.34
2022-12-19T23:31:19.620Z,9.35
2022-12-19T23:33:47.494Z,9.41
2022-12-19T23:36:15.532Z,9.40
2022-12-19T23:38:44.741Z,9.42
2022-12-19T23:41:16.012Z,9.47
2022-12-19T23:43:43.893Z,9.49
2022-12-19T23:46:16.185Z,9.53
2022-12-19T23:48:44.545Z,9.52
2022-12-19T23:51:14.401Z,9.54
2022-12-19T23:53:42.470Z,9.54
2022-12-19T23:56:14.889Z,9.54
2022-12-19T23:58:42.804Z,9.55
